Time;durP1;ratioP1;P1;durP2;ratioP2;P2;SDS_P1;SDS_P2;PMS_P1;PMS_P2;Temp;Humidity;BMP_temperature;BMP_pressure;BME280_temperature;BME280_humidity;BME280_pressure;Samples;Min_cycle;Max_cycle;Signal;HPM_P1;HPM_P2
2021/03/06 00:00:55;;;;;;;11.67;5.50;;;;;;;-1.06;57.94;99865.27;128318;1108;22853;-69
2021/03/06 00:03:25;;;;;;;6.33;3.50;;;;;;;-1.08;58.45;99860.08;128354;1108;22858;-70
2021/03/06 00:05:56;;;;;;;4.93;2.33;;;;;;;-1.12;58.37;99864.10;128211;1108;23002;-70
2021/03/06 00:08:24;;;;;;;4.60;2.50;;;;;;;-1.14;58.45;99860.77;128356;1108;22975;-70
2021/03/06 00:10:54;;;;;;;5.70;2.90;;;;;;;-1.16;58.60;99865.48;128224;1109;22837;-69
2021/03/06 00:13:23;;;;;;;5.47;3.07;;;;;;;-1.19;59.23;99865.83;128335;1108;22899;-69
2021/03/06 00:15:50;;;;;;;8.50;4.10;;;;;;;-1.21;59.30;99875.02;128366;1108;23093;-70
2021/03/06 00:18:18;;;;;;;8.63;4.43;;;;;;;-1.26;59.45;99867.52;128286;1109;22852;-69
2021/03/06 00:20:46;;;;;;;6.53;4.10;;;;;;;-1.28;59.03;99874.87;125266;1108;24671;-70
2021/03/06 00:23:17;;;;;;;21.53;10.10;;;;;;;-1.29;59.46;99883.05;128218;1107;22898;-70
2021/03/06 00:25:45;;;;;;;7.70;3.37;;;;;;;-1.35;60.02;99870.41;127395;1108;23475;-70
2021/03/06 00:28:13;;;;;;;9.97;4.53;;;;;;;-1.40;59.54;99876.25;124647;1108;27440;-69
2021/03/06 00:30:41;;;;;;;7.50;3.53;;;;;;;-1.46;59.49;99872.45;126945;1108;23221;-69
2021/03/06 00:33:09;;;;;;;6.07;3.10;;;;;;;-1.49;58.83;99870.11;127414;1107;23157;-69
2021/03/06 00:35:48;;;;;;;10.70;4.17;;;;;;;-1.56;59.23;99870.95;125950;1108;23093;-68
2021/03/06 00:38:16;;;;;;;5.63;2.60;;;;;;;-1.59;59.02;99874.00;125845;1107;23061;-68
2021/03/06 00:40:44;;;;;;;8.85;3.95;;;;;;;-1.60;58.97;99872.33;124494;1107;23102;-69
2021/03/06 00:43:11;;;;;;;9.33;4.80;;;;;;;-1.64;58.78;99871.83;124574;1108;26870;-69
2021/03/06 00:45:39;;;;;;;5.87;2.70;;;;;;;-1.67;58.11;99876.67;124623;1109;24674;-68
2021/03/06 00:48:07;;;;;;;8.10;4.33;;;;;;;-1.72;57.98;99869.16;124513;1109;26223;-69
2021/03/06 00:50:35;;;;;;;7.50;3.57;;;;;;;-1.73;58.32;99869.36;128309;1108;23565;-69
2021/03/06 00:53:04;;;;;;;5.80;2.60;;;;;;;-1.74;58.38;99873.03;128271;1107;25562;-70
2021/03/06 00:55:32;;;;;;;6.37;3.47;;;;;;;-1.76;57.25;99873.20;128261;1108;23028;-71
2021/03/06 00:58:00;;;;;;;5.33;2.90;;;;;;;-1.80;56.64;99885.22;128259;1108;23074;-70
2021/03/06 01:00:29;;;;;;;6.03;2.83;;;;;;;-1.82;56.77;99887.22;128281;1108;22843;-70
2021/03/06 01:02:59;;;;;;;8.40;3.80;;;;;;;-1.85;56.58;99877.70;128270;1107;22833;-70
2021/03/06 01:05:27;;;;;;;8.77;4.33;;;;;;;-1.87;56.28;99887.72;127860;1108;22984;-69
2021/03/06 01:07:55;;;;;;;5.13;3.00;;;;;;;-1.90;56.50;99887.25;124591;1108;23145;-69
2021/03/06 01:10:28;;;;;;;6.40;3.37;;;;;;;-1.93;56.16;99882.23;124648;1108;23107;-69
2021/03/06 01:12:57;;;;;;;4.87;2.80;;;;;;;-1.95;56.25;99881.56;128338;1108;22885;-69
2021/03/06 01:15:26;;;;;;;8.23;4.00;;;;;;;-2.00;55.25;99884.73;128187;1108;23676;-70
2021/03/06 01:17:54;;;;;;;6.57;3.30;;;;;;;-2.01;55.99;99895.58;125538;1108;28476;-69
2021/03/06 01:20:22;;;;;;;13.20;6.70;;;;;;;-2.03;56.23;99886.93;128260;1107;22818;-70
2021/03/06 01:22:50;;;;;;;21.80;10.57;;;;;;;-2.03;56.48;99887.77;128343;1107;22850;-69
2021/03/06 01:25:17;;;;;;;7.37;2.90;;;;;;;-2.03;55.86;99885.09;128275;1108;22882;-71
2021/03/06 01:27:45;;;;;;;18.60;8.53;;;;;;;-2.03;56.08;99892.27;128349;1108;22831;-71
2021/03/06 01:30:12;;;;;;;16.47;7.90;;;;;;;-2.04;57.02;99890.59;128209;1107;24033;-70
2021/03/06 01:32:40;;;;;;;10.77;4.13;;;;;;;-2.05;57.10;99889.77;128399;1108;22879;-69
2021/03/06 01:35:11;;;;;;;31.50;14.17;;;;;;;-2.07;57.08;99899.77;128246;1109;22918;-68
2021/03/06 01:37:39;;;;;;;20.27;9.73;;;;;;;-2.09;57.96;99895.59;128316;1107;23645;-70
2021/03/06 01:40:09;;;;;;;16.00;6.73;;;;;;;-2.09;58.00;99888.42;126063;1108;26431;-70
2021/03/06 01:42:36;;;;;;;18.40;7.70;;;;;;;-2.10;58.04;99894.76;128259;1108;23739;-70
2021/03/06 01:45:05;;;;;;;20.13;8.20;;;;;;;-2.12;57.92;99898.59;128324;1108;22821;-70
2021/03/06 01:47:33;;;;;;;9.87;4.37;;;;;;;-2.10;58.02;99912.61;128293;1107;22843;-70
2021/03/06 01:50:02;;;;;;;5.60;2.33;;;;;;;-2.14;57.66;99909.44;128245;1107;22888;-70
2021/03/06 01:52:30;;;;;;;4.50;1.90;;;;;;;-2.13;57.99;99913.77;128365;1107;23617;-70
2021/03/06 01:54:58;;;;;;;2.57;1.53;;;;;;;-2.12;58.27;99910.11;128267;1108;22840;-70
2021/03/06 01:57:25;;;;;;;2.73;1.80;;;;;;;-2.15;57.71;99913.94;128284;1109;22962;-69
2021/03/06 01:59:53;;;;;;;8.63;2.53;;;;;;;-2.16;57.89;99922.11;128305;1108;22936;-69
2021/03/06 02:02:20;;;;;;;4.83;3.30;;;;;;;-2.18;57.51;99926.80;128262;1108;22868;-70
2021/03/06 02:04:48;;;;;;;4.00;2.13;;;;;;;-2.21;56.72;99925.30;128352;1108;22828;-70
2021/03/06 02:07:16;;;;;;;2.40;1.53;;;;;;;-2.24;56.36;99922.95;128274;1108;22939;-70
2021/03/06 02:09:43;;;;;;;3.40;1.83;;;;;;;-2.25;55.89;99937.30;128312;1108;22831;-70
2021/03/06 02:12:26;;;;;;;6.07;2.87;;;;;;;-2.30;55.20;99938.78;128233;1109;23651;-70
2021/03/06 02:15:11;;;;;;;3.77;1.97;;;;;;;-2.36;54.00;99936.79;128364;1109;23037;-70
2021/03/06 02:17:43;;;;;;;5.03;2.93;;;;;;;-2.41;53.78;99942.61;128197;1109;23623;-70
2021/03/06 02:20:11;;;;;;;12.90;5.37;;;;;;;-2.43;54.38;99947.27;128338;1109;23582;-70
2021/03/06 02:22:57;;;;;;;6.33;1.97;;;;;;;-2.43;53.68;99955.27;128205;1108;23472;-70
2021/03/06 02:25:48;;;;;;;7.23;3.13;;;;;;;-2.44;54.14;99960.77;128273;1108;22827;-70
2021/03/06 02:28:42;;;;;;;7.37;3.10;;;;;;;-2.47;54.13;99955.78;128216;1108;22945;-70
2021/03/06 02:33:39;;;;;;;4.73;2.53;;;;;;;-2.60;53.47;99959.77;124367;1111;23046;-70
2021/03/06 02:36:09;;;;;;;4.50;1.37;;;;;;;-2.60;52.67;99965.09;128280;1110;23619;-70
2021/03/06 02:38:41;;;;;;;5.13;1.97;;;;;;;-2.64;52.83;99969.08;128197;1110;22853;-71
2021/03/06 02:41:10;;;;;;;3.73;2.07;;;;;;;-2.67;52.80;99968.56;128287;1110;22885;-70
2021/03/06 02:43:37;;;;;;;4.90;2.30;;;;;;;-2.68;52.08;99973.06;128225;1111;24294;-70
2021/03/06 02:46:07;;;;;;;2.73;1.77;;;;;;;-2.71;51.95;99973.38;128327;1110;23402;-70
2021/03/06 02:48:35;;;;;;;2.80;1.80;;;;;;;-2.75;51.19;99979.22;128199;1110;23004;-70
2021/03/06 02:51:03;;;;;;;5.30;2.00;;;;;;;-2.79;51.09;99984.03;128299;1110;23014;-70
2021/03/06 02:53:31;;;;;;;3.60;1.87;;;;;;;-2.79;51.16;99991.19;128242;1112;22834;-70
2021/03/06 02:55:59;;;;;;;2.33;1.67;;;;;;;-2.81;50.72;99991.34;128376;1109;22862;-70
2021/03/06 02:58:36;;;;;;;2.73;1.60;;;;;;;-2.83;51.36;99989.83;128304;1108;22851;-70
2021/03/06 03:01:18;;;;;;;4.33;1.47;;;;;;;-2.86;50.95;99993.65;128285;1108;22826;-70
2021/03/06 03:03:52;;;;;;;4.93;2.67;;;;;;;-2.91;49.98;99998.65;128200;1108;23461;-70
2021/03/06 03:06:31;;;;;;;3.27;1.47;;;;;;;-2.98;50.10;99994.94;128313;1108;23067;-70
2021/03/06 03:09:06;;;;;;;4.80;2.00;;;;;;;-3.01;50.62;100000.58;128190;1109;22847;-70
2021/03/06 03:11:56;;;;;;;3.63;1.60;;;;;;;-3.00;49.39;100000.42;127497;1107;23106;-70
2021/03/06 03:14:46;;;;;;;1.43;1.10;;;;;;;-3.02;49.18;100001.56;128198;1109;23572;-70
2021/03/06 03:17:14;;;;;;;3.93;2.03;;;;;;;-3.05;49.81;100002.75;128354;1108;22862;-70
2021/03/06 03:20:08;;;;;;;3.57;1.53;;;;;;;-3.04;49.49;100007.09;128248;1109;23633;-69
2021/03/06 03:22:37;;;;;;;4.17;1.53;;;;;;;-3.05;50.18;100000.08;128362;1108;22830;-70
2021/03/06 03:25:05;;;;;;;2.93;1.20;;;;;;;-3.06;49.97;100005.57;128215;1108;22884;-70
2021/03/06 03:27:35;;;;;;;2.00;1.47;;;;;;;-3.07;49.97;100010.06;128306;1109;23025;-70
2021/03/06 03:30:10;;;;;;;4.07;1.23;;;;;;;-3.13;49.69;100013.34;124721;1109;24739;-69
2021/03/06 03:32:39;;;;;;;6.00;2.20;;;;;;;-3.19;50.32;100011.34;128303;1108;22875;-70
2021/03/06 03:35:09;;;;;;;14.03;5.37;;;;;;;-3.22;51.13;100014.31;129181;1105;24797;-70
2021/03/06 03:37:37;;;;;;;56.80;25.87;;;;;;;-3.26;50.63;100015.61;129228;1105;22845;-70
2021/03/06 03:40:05;;;;;;;68.37;27.73;;;;;;;-3.30;50.85;100016.91;129203;1105;22897;-71
2021/03/06 03:42:34;;;;;;;49.33;21.23;;;;;;;-3.37;50.72;100016.72;129249;1105;22836;-71
2021/03/06 03:45:15;;;;;;;32.57;17.07;;;;;;;-3.39;51.84;100024.02;129134;1105;23136;-71
2021/03/06 03:47:42;;;;;;;8.83;4.53;;;;;;;-3.36;51.24;100025.55;129190;1105;22874;-71
2021/03/06 03:50:11;;;;;;;6.53;3.30;;;;;;;-3.35;51.51;100030.72;129141;1105;23430;-71
2021/03/06 03:52:41;;;;;;;6.93;2.43;;;;;;;-3.38;51.34;100027.52;125501;1105;23100;-70
2021/03/06 03:55:09;;;;;;;3.80;2.17;;;;;;;-3.42;52.25;100029.66;129170;1105;23017;-71
2021/03/06 03:57:37;;;;;;;4.33;1.77;;;;;;;-3.43;51.63;100035.97;129257;1105;23014;-71
2021/03/06 04:00:07;;;;;;;2.90;1.80;;;;;;;-3.44;51.88;100031.63;129165;1105;23769;-71
2021/03/06 04:02:35;;;;;;;4.00;1.60;;;;;;;-3.45;52.47;100029.95;129296;1104;22969;-71
2021/03/06 04:05:07;;;;;;;3.87;1.43;;;;;;;-3.49;51.63;100031.28;129144;1105;22898;-70
2021/03/06 04:07:44;;;;;;;4.00;1.90;;;;;;;-3.52;51.65;100034.25;129235;1105;22962;-69
2021/03/06 04:10:14;;;;;;;2.22;1.80;;;;;;;-3.51;52.73;100040.41;127356;1105;26463;-69
2021/03/06 04:12:42;;;;;;;4.03;2.07;;;;;;;-3.52;52.53;100042.24;125143;1106;23222;-69
2021/03/06 04:15:11;;;;;;;7.30;2.30;;;;;;;-3.53;53.37;100045.89;129259;1105;22872;-67
2021/03/06 04:17:38;;;;;;;5.53;2.03;;;;;;;-3.58;52.04;100043.69;129129;1105;22816;-70
2021/03/06 04:20:08;;;;;;;8.67;3.00;;;;;;;-3.62;53.12;100042.34;129257;1105;22902;-70
2021/03/06 04:22:35;;;;;;;7.97;3.70;;;;;;;-3.65;53.40;100044.47;129174;1105;22859;-71
2021/03/06 04:25:06;;;;;;;8.97;2.90;;;;;;;-3.65;52.47;100047.97;129259;1105;23062;-71
2021/03/06 04:27:35;;;;;;;5.93;3.07;;;;;;;-3.60;53.41;100052.81;129189;1105;22943;-71
2021/03/06 04:30:07;;;;;;;3.30;1.50;;;;;;;-3.62;52.39;100052.16;129221;1104;23000;-71
2021/03/06 04:32:36;;;;;;;4.90;2.03;;;;;;;-3.69;53.05;100059.08;129166;1105;23560;-71
2021/03/06 04:35:04;;;;;;;2.87;1.73;;;;;;;-3.73;54.10;100060.36;129280;1105;22883;-71
2021/03/06 04:37:32;;;;;;;8.27;2.80;;;;;;;-3.77;54.47;100059.86;129177;1105;23034;-71
2021/03/06 04:39:59;;;;;;;4.00;1.90;;;;;;;-3.79;54.47;100055.67;129251;1104;23052;-71
2021/03/06 04:42:27;;;;;;;3.67;1.77;;;;;;;-3.86;54.38;100059.91;129210;1105;22830;-71
2021/03/06 04:44:54;;;;;;;5.70;2.17;;;;;;;-3.89;54.82;100061.05;129249;1105;22887;-71
2021/03/06 04:47:22;;;;;;;3.47;2.00;;;;;;;-3.87;55.02;100061.73;129222;1105;23111;-71
2021/03/06 04:49:50;;;;;;;6.03;2.57;;;;;;;-3.86;55.96;100059.91;129307;1104;22886;-71
2021/03/06 04:52:17;;;;;;;6.23;2.80;;;;;;;-3.88;55.16;100065.38;129197;1105;23744;-72
2021/03/06 04:54:45;;;;;;;5.97;2.80;;;;;;;-3.88;55.38;100060.06;129286;1105;22848;-71
2021/03/06 04:57:13;;;;;;;6.27;3.20;;;;;;;-3.84;56.11;100066.77;129210;1104;23634;-71
2021/03/06 04:59:41;;;;;;;17.07;5.67;;;;;;;-3.77;56.56;100062.52;129264;1105;23692;-71
2021/03/06 05:02:09;;;;;;;25.07;9.23;;;;;;;-3.74;55.73;100061.34;129133;1105;22833;-72
2021/03/06 05:04:36;;;;;;;74.20;13.03;;;;;;;-3.75;56.79;100073.02;129206;1105;22873;-72
2021/03/06 05:07:04;;;;;;;334.27;86.87;;;;;;;-3.75;55.42;100070.36;129260;1105;23037;-72
2021/03/06 05:09:31;;;;;;;120.83;41.20;;;;;;;-3.77;56.61;100075.83;129139;1105;22929;-71
2021/03/06 05:11:59;;;;;;;38.43;16.23;;;;;;;-3.76;57.02;100079.33;129273;1105;23619;-71
2021/03/06 05:14:26;;;;;;;27.53;10.83;;;;;;;-3.78;56.00;100084.80;129178;1105;22993;-71
2021/03/06 05:16:53;;;;;;;24.37;8.63;;;;;;;-3.76;56.63;100093.48;129292;1106;22887;-70
2021/03/06 05:19:21;;;;;;;48.13;13.50;;;;;;;-3.78;56.79;100094.61;129190;1105;23741;-70
2021/03/06 05:21:49;;;;;;;12.90;5.53;;;;;;;-3.77;56.00;100093.63;129262;1106;22871;-70
2021/03/06 05:24:16;;;;;;;8.87;3.93;;;;;;;-3.75;56.30;100097.78;129156;1105;22963;-70
2021/03/06 05:26:43;;;;;;;6.17;3.13;;;;;;;-3.70;56.57;100103.50;129265;1105;22821;-70
2021/03/06 05:29:11;;;;;;;7.83;4.00;;;;;;;-3.66;56.56;100115.53;129150;1104;22844;-70
2021/03/06 05:31:38;;;;;;;13.20;4.87;;;;;;;-3.60;55.70;100109.58;129254;1105;22863;-70
2021/03/06 05:34:06;;;;;;;8.53;4.10;;;;;;;-3.55;55.73;100109.13;129145;1105;22948;-70
2021/03/06 05:36:34;;;;;;;10.77;4.13;;;;;;;-3.48;55.19;100117.35;129253;1105;22939;-70
2021/03/06 05:39:01;;;;;;;13.10;4.43;;;;;;;-3.47;54.73;100127.86;129140;1105;22833;-71
2021/03/06 05:41:29;;;;;;;9.27;3.57;;;;;;;-3.43;54.81;100139.02;129241;1104;23868;-70
2021/03/06 05:43:57;;;;;;;8.43;3.27;;;;;;;-3.40;54.91;100130.73;129189;1105;23464;-70
2021/03/06 05:46:24;;;;;;;8.83;2.70;;;;;;;-3.40;54.67;100131.56;129121;1105;23550;-70
2021/03/06 05:48:55;;;;;;;4.87;3.07;;;;;;;-3.37;55.35;100136.59;128998;1103;22829;-70
2021/03/06 05:51:22;;;;;;;4.87;2.83;;;;;;;-3.34;54.59;100138.12;129185;1105;23843;-70
2021/03/06 05:53:50;;;;;;;10.80;4.43;;;;;;;-3.31;54.60;100148.44;128427;1105;23362;-71
2021/03/06 05:56:18;;;;;;;6.80;3.23;;;;;;;-3.26;55.58;100149.67;129150;1105;22947;-70
2021/03/06 05:58:47;;;;;;;10.17;4.50;;;;;;;-3.23;55.39;100157.36;129191;1105;22898;-70
2021/03/06 06:01:14;;;;;;;10.27;2.67;;;;;;;-3.18;53.24;100148.08;129112;1105;22923;-71
2021/03/06 06:03:42;;;;;;;8.37;2.63;;;;;;;-3.18;53.83;100156.91;129056;1105;23473;-70
2021/03/06 06:06:10;;;;;;;9.13;3.63;;;;;;;-3.15;54.49;100161.06;128951;1105;23394;-71
2021/03/06 06:08:37;;;;;;;6.33;3.27;;;;;;;-3.09;54.73;100165.79;129154;1106;22899;-70
2021/03/06 06:11:04;;;;;;;8.00;3.80;;;;;;;-3.03;54.75;100167.84;128350;1106;23431;-70
2021/03/06 06:13:32;;;;;;;7.40;3.00;;;;;;;-2.97;53.15;100170.72;129244;1105;22897;-71
2021/03/06 06:15:59;;;;;;;7.13;3.10;;;;;;;-2.95;52.80;100171.41;129093;1105;22855;-71
2021/03/06 06:18:27;;;;;;;4.90;2.37;;;;;;;-2.95;53.17;100176.73;127533;1106;26466;-71
2021/03/06 06:20:55;;;;;;;5.03;2.60;;;;;;;-2.90;53.54;100179.78;125028;1106;23105;-70
2021/03/06 06:23:23;;;;;;;7.60;2.63;;;;;;;-2.88;53.48;100179.59;127020;1105;23243;-69
2021/03/06 06:25:50;;;;;;;7.43;2.90;;;;;;;-2.81;53.44;100186.00;126749;1105;23163;-64
2021/03/06 06:28:23;;;;;;;7.50;2.13;;;;;;;-2.73;52.76;100187.87;125244;1105;23099;-62
2021/03/06 06:31:13;;;;;;;5.83;2.33;;;;;;;-2.64;51.92;100190.45;126008;1106;23184;-64
2021/03/06 06:33:41;;;;;;;5.90;2.80;;;;;;;-2.57;53.27;100187.97;125330;1105;23104;-65
2021/03/06 06:36:11;;;;;;;5.80;3.00;;;;;;;-2.51;51.97;100188.20;125484;1104;23340;-64
2021/03/06 06:38:42;;;;;;;4.50;2.70;;;;;;;-2.51;51.53;100188.20;128811;1105;23025;-64
2021/03/06 06:41:10;;;;;;;8.13;3.20;;;;;;;-2.48;50.80;100195.05;129038;1105;22862;-65
2021/03/06 06:43:37;;;;;;;4.47;2.23;;;;;;;-2.44;49.76;100195.55;129160;1106;23263;-64
2021/03/06 06:46:05;;;;;;;6.90;2.40;;;;;;;-2.43;50.67;100202.56;129122;1105;22849;-64
2021/03/06 06:48:33;;;;;;;5.17;2.40;;;;;;;-2.44;49.52;100199.06;129168;1105;23023;-64
2021/03/06 06:51:10;;;;;;;5.23;2.27;;;;;;;-2.44;49.04;100204.39;128478;1105;22913;-65
2021/03/06 06:53:37;;;;;;;3.83;2.05;;;;;;;-2.40;49.58;100207.59;129050;1105;22919;-64
2021/03/06 06:56:22;;;;;;;7.30;2.57;;;;;;;-2.38;49.49;100208.27;127585;1105;23491;-70
2021/03/06 06:59:02;;;;;;;10.10;5.93;;;;;;;-2.28;49.03;100198.31;129100;1104;22932;-70
2021/03/06 07:01:37;;;;;;;11.63;5.57;;;;;;;-2.20;49.36;100195.70;128486;1106;22890;-70
2021/03/06 07:04:09;;;;;;;14.03;7.00;;;;;;;-2.09;48.80;100206.09;128436;1105;23572;-69
2021/03/06 07:06:41;;;;;;;7.80;3.03;;;;;;;-1.99;48.18;100213.97;126819;1105;23053;-69
2021/03/06 07:09:11;;;;;;;8.07;3.40;;;;;;;-1.92;48.31;100205.17;128195;1106;22908;-70
2021/03/06 07:11:38;;;;;;;10.73;4.03;;;;;;;-1.82;48.65;100210.37;129169;1105;22897;-70
2021/03/06 07:14:06;;;;;;;8.37;3.50;;;;;;;-1.72;48.87;100208.39;128347;1105;22945;-70
2021/03/06 07:16:56;;;;;;;6.77;2.67;;;;;;;-1.61;47.75;100209.95;129199;1105;22914;-70
2021/03/06 07:19:30;;;;;;;7.93;2.17;;;;;;;-1.51;47.36;100207.95;128855;1105;22848;-70
2021/03/06 07:21:58;;;;;;;5.00;2.20;;;;;;;-1.44;46.74;100203.62;129179;1105;23761;-70
2021/03/06 07:24:26;;;;;;;12.63;5.10;;;;;;;-1.38;46.52;100210.16;129108;1105;23804;-69
2021/03/06 07:26:54;;;;;;;16.03;6.40;;;;;;;-1.38;46.36;100208.31;129192;1105;22919;-64
2021/03/06 07:29:23;;;;;;;7.83;3.53;;;;;;;-1.35;45.36;100209.83;129057;1105;24978;-64
2021/03/06 07:31:52;;;;;;;7.63;2.60;;;;;;;-1.32;45.43;100220.20;128930;1105;22910;-64
2021/03/06 07:34:21;;;;;;;7.83;3.60;;;;;;;-1.31;44.91;100216.53;129079;1105;23489;-65
2021/03/06 07:36:48;;;;;;;8.27;3.40;;;;;;;-1.32;44.62;100221.04;129154;1105;22941;-64
2021/03/06 07:39:17;;;;;;;29.40;9.47;;;;;;;-1.32;45.09;100225.55;129107;1105;22818;-65
2021/03/06 07:41:56;;;;;;;16.03;6.33;;;;;;;-1.26;44.96;100228.38;129180;1105;22874;-64
2021/03/06 07:44:25;;;;;;;5.50;2.00;;;;;;;-1.18;42.59;100233.77;128537;1105;23603;-64
2021/03/06 07:46:53;;;;;;;16.77;7.30;;;;;;;-1.13;42.35;100234.08;129157;1105;22871;-65
2021/03/06 07:49:28;;;;;;;4.33;2.33;;;;;;;-1.08;43.24;100234.43;129073;1105;22830;-65
2021/03/06 07:51:56;;;;;;;6.23;2.70;;;;;;;-1.02;42.61;100216.06;129192;1105;23360;-64
2021/03/06 07:54:23;;;;;;;6.00;2.30;;;;;;;-0.97;43.30;100222.56;128326;1105;22856;-63
2021/03/06 07:56:51;;;;;;;8.67;3.07;;;;;;;-0.88;42.49;100223.42;126314;1106;23049;-71
2021/03/06 07:59:47;;;;;;;10.97;4.50;;;;;;;-0.84;43.10;100214.03;129129;1105;22843;-71
2021/03/06 08:02:34;;;;;;;11.03;4.47;;;;;;;-0.76;43.45;100216.72;129250;1105;22842;-71
2021/03/06 08:05:44;;;;;;;5.70;2.67;;;;;;;-0.65;43.07;100227.08;129171;1105;22894;-71
2021/03/06 08:08:32;;;;;;;5.77;2.13;;;;;;;-0.58;42.28;100220.06;129231;1105;22906;-71
2021/03/06 08:11:02;;;;;;;5.17;2.12;;;;;;;-0.55;41.16;100227.73;129053;1105;24031;-71
2021/03/06 08:13:34;;;;;;;4.50;2.43;;;;;;;-0.54;42.32;100224.05;129249;1105;22846;-71
2021/03/06 08:16:20;;;;;;;5.90;3.00;;;;;;;-0.48;41.95;100217.20;129190;1105;23673;-71
2021/03/06 08:18:48;;;;;;;4.63;2.90;;;;;;;-0.42;42.73;100227.20;129217;1105;22799;-71
2021/03/06 08:21:30;;;;;;;7.03;2.33;;;;;;;-0.37;41.46;100227.54;129084;1105;24193;-71
2021/03/06 08:24:18;;;;;;;6.53;2.30;;;;;;;-0.36;42.47;100219.34;129178;1105;22828;-71
2021/03/06 08:27:10;;;;;;;4.70;1.80;;;;;;;-0.29;42.45;100216.83;129130;1106;23429;-72
2021/03/06 08:29:55;;;;;;;3.10;1.60;;;;;;;-0.21;42.87;100222.16;129189;1105;22976;-71
2021/03/06 08:32:31;;;;;;;2.60;1.30;;;;;;;-0.18;41.34;100223.66;129218;1105;23105;-72
2021/03/06 08:35:19;;;;;;;4.73;1.50;;;;;;;-0.16;40.87;100219.81;129219;1105;22861;-71
2021/03/06 08:37:48;;;;;;;4.67;1.50;;;;;;;-0.15;40.53;100220.64;129228;1105;22821;-72
2021/03/06 08:40:20;;;;;;;3.97;1.50;;;;;;;-0.15;40.21;100218.80;129242;1105;23044;-71
2021/03/06 08:42:51;;;;;;;5.03;1.73;;;;;;;-0.13;40.34;100211.41;129094;1105;23400;-71
2021/03/06 08:45:23;;;;;;;3.57;1.63;;;;;;;-0.12;40.96;100218.44;129237;1105;22842;-71
2021/03/06 08:47:58;;;;;;;5.37;1.83;;;;;;;-0.04;40.34;100217.59;129183;1105;22820;-71
2021/03/06 08:50:27;;;;;;;6.13;1.60;;;;;;;0.03;41.62;100215.88;129312;1105;22892;-71
2021/03/06 08:52:59;;;;;;;4.60;1.73;;;;;;;0.13;41.81;100218.37;129193;1105;22980;-71
2021/03/06 08:55:30;;;;;;;5.83;1.50;;;;;;;0.21;40.41;100202.24;128791;1105;22831;-71
2021/03/06 08:58:02;;;;;;;3.37;1.40;;;;;;;0.25;41.84;100208.93;129123;1105;22855;-71
2021/03/06 09:00:33;;;;;;;5.30;2.30;;;;;;;0.32;41.06;100207.20;129279;1105;23616;-71
2021/03/06 09:03:25;;;;;;;3.27;1.40;;;;;;;0.40;40.74;100211.70;129143;1105;22895;-71
2021/03/06 09:05:55;;;;;;;2.67;1.50;;;;;;;0.42;39.57;100210.53;129262;1105;22982;-71
2021/03/06 09:08:27;;;;;;;2.10;1.20;;;;;;;0.38;39.81;100206.52;129116;1105;23595;-71
2021/03/06 09:10:57;;;;;;;2.87;1.50;;;;;;;0.38;41.24;100211.05;129254;1104;22882;-71
2021/03/06 09:13:26;;;;;;;2.63;1.30;;;;;;;0.45;41.17;100217.36;129162;1105;22910;-72
2021/03/06 09:15:57;;;;;;;5.07;1.90;;;;;;;0.52;38.86;100226.38;129269;1105;22829;-71
2021/03/06 09:18:32;;;;;;;2.33;1.20;;;;;;;0.57;40.64;100211.45;128942;1104;22823;-71
2021/03/06 09:21:04;;;;;;;4.20;1.40;;;;;;;0.61;39.96;100209.22;129266;1104;23583;-71
2021/03/06 09:23:41;;;;;;;4.10;1.40;;;;;;;0.62;38.85;100225.14;129184;1105;23975;-71
2021/03/06 09:26:13;;;;;;;2.40;1.40;;;;;;;0.60;38.48;100216.44;127496;1105;23023;-65
2021/03/06 09:28:40;;;;;;;3.03;1.30;;;;;;;0.55;37.84;100210.78;129172;1105;23028;-66
2021/03/06 09:31:20;;;;;;;1.60;1.10;;;;;;;0.54;38.80;100214.47;129226;1104;23560;-66
2021/03/06 09:33:49;;;;;;;3.57;1.53;;;;;;;0.59;40.05;100206.72;129119;1105;22926;-66
2021/03/06 09:36:17;;;;;;;2.70;1.53;;;;;;;0.66;39.60;100212.22;129281;1105;22828;-66
2021/03/06 09:38:54;;;;;;;6.23;1.73;;;;;;;0.73;40.37;100205.12;129133;1105;23480;-65
2021/03/06 09:41:37;;;;;;;3.03;1.33;;;;;;;0.82;40.12;100214.80;129293;1105;22888;-66
2021/03/06 09:44:06;;;;;;;2.67;1.60;;;;;;;0.85;38.42;100211.77;129190;1105;22859;-66
2021/03/06 09:46:35;;;;;;;3.17;1.43;;;;;;;0.85;38.38;100206.41;129223;1105;23865;-66
2021/03/06 09:49:09;;;;;;;1.80;1.20;;;;;;;0.84;38.83;100210.09;129009;1105;22842;-65
2021/03/06 09:51:41;;;;;;;3.70;1.50;;;;;;;0.88;37.59;100213.23;129225;1105;23025;-65
2021/03/06 09:54:09;;;;;;;2.70;1.50;;;;;;;0.86;37.54;100210.76;129137;1105;23020;-65
2021/03/06 09:56:53;;;;;;;3.20;1.30;;;;;;;0.83;37.78;100210.27;126648;1104;23098;-71
2021/03/06 09:59:21;;;;;;;3.60;1.30;;;;;;;0.84;38.28;100199.37;129149;1105;22847;-71
2021/03/06 10:01:49;;;;;;;3.27;1.47;;;;;;;0.90;39.09;100203.16;129267;1105;23428;-72
2021/03/06 10:04:25;;;;;;;2.63;1.30;;;;;;;1.00;38.48;100199.25;129201;1105;22871;-72
2021/03/06 10:06:54;;;;;;;2.60;1.30;;;;;;;1.12;38.74;100207.70;129239;1105;22848;-71
2021/03/06 10:09:22;;;;;;;2.97;1.40;;;;;;;1.18;36.69;100198.91;129066;1105;23518;-71
2021/03/06 10:11:54;;;;;;;4.63;2.07;;;;;;;1.19;37.48;100192.53;129157;1105;22824;-71
2021/03/06 10:14:25;;;;;;;8.93;2.17;;;;;;;1.19;38.02;100195.22;129109;1105;22917;-71
2021/03/06 10:17:02;;;;;;;3.87;1.90;;;;;;;1.22;38.15;100192.17;129278;1105;23018;-71
2021/03/06 10:19:48;;;;;;;3.93;1.60;;;;;;;1.32;39.59;100195.43;129142;1105;23640;-71
2021/03/06 10:22:15;;;;;;;5.25;2.05;;;;;;;1.45;39.25;100197.48;129232;1105;22894;-71
2021/03/06 10:25:02;;;;;;;5.85;1.85;;;;;;;1.58;38.72;100186.14;127531;1106;23039;-71
2021/03/06 10:27:41;;;;;;;5.07;1.80;;;;;;;1.68;38.28;100182.16;125475;1105;24043;-71
2021/03/06 10:30:30;;;;;;;2.40;1.30;;;;;;;1.71;38.01;100184.48;129170;1105;22878;-71
2021/03/06 10:33:05;;;;;;;4.90;1.70;;;;;;;1.72;37.62;100182.64;129227;1105;22879;-71
2021/03/06 10:35:43;;;;;;;3.70;1.75;;;;;;;1.71;38.42;100167.53;128461;1105;23096;-71
2021/03/06 10:38:14;;;;;;;7.58;3.10;;;;;;;1.76;38.38;100179.37;125002;1106;23205;-70
2021/03/06 10:40:50;;;;;;;4.03;1.77;;;;;;;1.83;38.44;100179.48;129166;1105;22827;-71
2021/03/06 10:43:29;;;;;;;2.57;1.50;;;;;;;1.89;37.21;100178.72;129257;1105;22875;-71
2021/03/06 10:46:15;;;;;;;13.65;6.10;;;;;;;1.91;37.80;100173.16;129193;1105;22854;-71
2021/03/06 10:48:44;;;;;;;7.50;3.85;;;;;;;1.96;37.75;100166.22;129278;1105;22879;-71
2021/03/06 10:51:11;;;;;;;5.00;2.30;;;;;;;1.99;38.80;100160.48;129148;1105;22885;-71
2021/03/06 10:53:39;;;;;;;4.23;1.60;;;;;;;2.04;38.45;100162.59;129286;1105;22902;-71
2021/03/06 10:56:18;;;;;;;2.15;1.50;;;;;;;2.09;37.76;100160.18;129165;1105;22879;-70
2021/03/06 10:58:47;;;;;;;5.17;2.37;;;;;;;2.14;37.27;100165.84;129234;1105;23695;-71
2021/03/06 11:01:33;;;;;;;2.07;1.23;;;;;;;2.08;35.25;100164.72;129146;1105;22901;-71
2021/03/06 11:04:02;;;;;;;3.55;1.70;;;;;;;1.94;36.06;100154.83;129220;1105;23676;-71
2021/03/06 11:06:29;;;;;;;4.23;1.83;;;;;;;1.85;36.70;100165.86;126885;1104;24184;-71
2021/03/06 11:09:03;;;;;;;9.20;3.15;;;;;;;1.83;37.61;100159.84;124956;1105;23325;-70
2021/03/06 11:11:48;;;;;;;3.00;1.67;;;;;;;1.83;36.26;100171.42;129138;1105;23134;-71
2021/03/06 11:14:25;;;;;;;2.40;1.40;;;;;;;1.76;37.61;100163.25;129293;1105;22894;-71
2021/03/06 11:16:54;;;;;;;3.75;1.80;;;;;;;1.73;37.33;100160.94;129206;1105;23979;-71
2021/03/06 11:19:22;;;;;;;3.47;1.50;;;;;;;1.74;37.88;100154.55;129232;1104;22936;-71
2021/03/06 11:21:49;;;;;;;5.60;1.90;;;;;;;1.76;38.12;100157.05;129214;1105;23556;-72
2021/03/06 11:24:17;;;;;;;8.50;3.30;;;;;;;1.78;38.36;100161.22;129191;1105;22835;-71
2021/03/06 11:26:45;;;;;;;5.40;2.17;;;;;;;1.79;38.79;100164.74;129260;1105;23415;-71
2021/03/06 11:29:12;;;;;;;3.05;1.70;;;;;;;1.80;38.76;100157.52;129210;1105;23466;-71
2021/03/06 11:31:54;;;;;;;7.17;2.13;;;;;;;1.83;37.91;100147.24;129247;1105;23142;-71
2021/03/06 11:34:22;;;;;;;4.35;2.30;;;;;;;1.83;38.31;100146.41;126260;1105;23252;-71
2021/03/06 11:36:50;;;;;;;2.73;1.37;;;;;;;1.86;38.24;100143.35;126276;1105;23102;-71
2021/03/06 11:39:18;;;;;;;4.85;2.10;;;;;;;1.90;39.07;100144.63;129152;1105;23049;-72
2021/03/06 11:41:45;;;;;;;4.90;2.10;;;;;;;1.92;37.50;100134.53;129284;1105;22976;-71